首页
METAR-TAF:

METAR-TAF

机场 :

劳顿, 奧克拉荷馬州, 美国

纬度: 34-33-27N, 经度: 098-25-00W, 海拔: 338米

当前天气观测

该预报发布于16分钟前的15:38 UTC
风速4节,风向多变
温度 29°C
湿度 62%
气压 1017 hPa
能見度: 8.0公里
天空无云

METAR: KLAW 121538Z VRB04KT 5SM HZ CLR 29/21 A3003 RMK AO2 T02940206

时间: 10:54 (15:54 UTC)

预报

该预报发布于4小时和34分钟前的11:20 UTC
预报有效从12日的 12点(UTC)到 13日的 12点(UTC)
风速3节,风向多变
能見度: 10公里
少量云层高于25000英尺
短暂存在
从 12日的 12点(UTC)到 12日的 14点(UTC)
能見度: 4.8公里
轻雾
从 12日的 1600点(UTC)
风速8节,风向
能見度: 10公里
散云层高于4000英尺

TAF: KLAW 121120Z 1212/1312 VRB03KT P6SM FEW250 TEMPO 1212/1214 3SM BR FM121600 17008KT P6SM SCT040

超过4000个机场的气象观测和天气预报(METAR&TAF报告)。

可查询的气象台以黄色和红色小点在地图上表示。

将鼠标移到小点上方,可查看气象台名称。

然后点击查看天气观测和预报。

如需切换地图:点击带黑十字的绿色按钮放大地图;点击带横线的绿色按钮缩小地图;或者点击绿色箭头查看邻近地区的地图。


METAR-TAF: